Time;durP1;ratioP1;P1;durP2;ratioP2;P2;SDS_P1;SDS_P2;PMS_P1;PMS_P2;Temp;Humidity;BMP_temperature;BMP_pressure;BME280_temperature;BME280_humidity;BME280_pressure;Samples;Min_cycle;Max_cycle;Signal;HPM_P1;HPM_P2
2022/03/16 00:01:13;;;;;;;54.13;25.67;;;;;;;4.58;84.17;102413.16;5025343;28;20022;-84
2022/03/16 00:03:39;;;;;;;51.55;26.02;;;;;;;4.58;83.87;102414.06;5024356;28;20086;-84
2022/03/16 00:06:04;;;;;;;54.38;27.30;;;;;;;4.55;84.33;102411.25;5024170;28;20034;-85
2022/03/16 00:08:31;;;;;;;55.42;25.50;;;;;;;4.51;83.68;102404.06;5026140;28;20014;-84
2022/03/16 00:10:58;;;;;;;53.92;27.88;;;;;;;4.49;84.03;102413.34;5023844;28;20302;-84
2022/03/16 00:13:23;;;;;;;52.28;25.75;;;;;;;4.45;84.32;102413.94;5023038;28;20014;-84
2022/03/16 00:15:48;;;;;;;58.22;27.00;;;;;;;4.44;83.87;102415.59;5028899;28;20080;-84
2022/03/16 00:18:14;;;;;;;51.70;25.50;;;;;;;4.43;83.99;102415.50;5033999;28;20038;-85
2022/03/16 00:20:39;;;;;;;53.65;26.50;;;;;;;4.41;84.05;102414.50;5028643;28;20177;-85
2022/03/16 00:23:05;;;;;;;52.25;25.77;;;;;;;4.39;84.04;102410.88;5035867;28;20129;-85
2022/03/16 00:25:30;;;;;;;48.30;24.92;;;;;;;4.36;83.75;102414.16;5029105;28;20045;-84
2022/03/16 00:27:55;;;;;;;48.08;24.63;;;;;;;4.34;83.75;102416.63;5031003;28;20029;-84
2022/03/16 00:30:21;;;;;;;50.85;25.00;;;;;;;4.31;83.57;102418.97;5024826;28;20133;-84
2022/03/16 00:32:46;;;;;;;53.78;26.58;;;;;;;4.29;83.19;102415.38;5034581;28;20149;-85
2022/03/16 00:35:11;;;;;;;53.00;26.15;;;;;;;4.26;83.60;102416.81;5034236;28;20168;-85
2022/03/16 00:37:37;;;;;;;53.90;25.98;;;;;;;4.24;83.63;102421.88;5033398;28;20029;-84
2022/03/16 00:40:02;;;;;;;49.22;24.90;;;;;;;4.23;83.87;102425.25;5036122;28;20283;-84
2022/03/16 00:42:27;;;;;;;52.35;25.17;;;;;;;4.21;83.90;102419.06;5039615;28;20024;-85
2022/03/16 00:44:54;;;;;;;50.05;25.33;;;;;;;4.18;84.09;102426.56;5029873;28;20022;-84
2022/03/16 00:47:19;;;;;;;49.78;25.17;;;;;;;4.17;83.51;102425.69;5026691;28;20022;-84
2022/03/16 00:49:45;;;;;;;50.72;24.85;;;;;;;4.16;84.49;102410.09;5031277;28;20071;-84
2022/03/16 00:52:10;;;;;;;48.92;25.17;;;;;;;4.14;84.76;102407.41;5024088;28;20034;-84
2022/03/16 00:54:35;;;;;;;50.70;25.13;;;;;;;4.15;86.00;102416.03;5026045;28;20006;-84
2022/03/16 00:57:01;;;;;;;49.95;24.92;;;;;;;4.14;86.28;102417.72;5025506;28;20030;-84
2022/03/16 00:59:26;;;;;;;50.67;24.92;;;;;;;4.14;85.88;102415.16;5029967;28;20010;-84
2022/03/16 01:01:51;;;;;;;51.72;25.38;;;;;;;4.14;85.30;102419.38;5029866;28;20064;-84
2022/03/16 01:04:17;;;;;;;49.85;24.90;;;;;;;4.13;85.43;102418.50;5027213;28;20018;-84
2022/03/16 01:06:42;;;;;;;49.85;25.25;;;;;;;4.11;84.71;102414.00;5026607;28;20025;-84
2022/03/16 01:09:08;;;;;;;49.40;25.15;;;;;;;4.09;84.98;102407.84;5032071;28;20021;-84
2022/03/16 01:11:33;;;;;;;49.13;24.45;;;;;;;4.06;85.04;102405.91;5027566;28;20022;-84
2022/03/16 01:13:59;;;;;;;55.35;25.65;;;;;;;4.07;86.22;102409.38;5024262;28;20041;-84
2022/03/16 01:16:24;;;;;;;54.15;26.10;;;;;;;4.06;85.61;102395.59;5026656;28;20020;-84
2022/03/16 01:18:49;;;;;;;52.95;25.98;;;;;;;4.05;85.23;102405.81;5026254;28;20073;-84
2022/03/16 01:21:15;;;;;;;55.30;26.42;;;;;;;4.04;86.26;102404.00;5024853;28;20033;-84
2022/03/16 01:23:40;;;;;;;51.67;26.17;;;;;;;4.02;86.18;102387.53;5025781;28;20249;-84
2022/03/16 01:26:06;;;;;;;50.05;25.08;;;;;;;3.98;86.20;102402.78;5024050;28;20294;-84
2022/03/16 01:28:32;;;;;;;50.80;25.60;;;;;;;3.96;85.99;102395.69;5027034;28;20049;-84
2022/03/16 01:31:00;;;;;;;52.75;26.10;;;;;;;3.93;85.27;102401.50;5026956;28;20048;-84
2022/03/16 01:33:25;;;;;;;52.38;25.42;;;;;;;3.89;85.83;102396.91;5021812;28;20024;-84
2022/03/16 01:35:50;;;;;;;50.08;25.73;;;;;;;3.90;86.18;102397.81;5024337;28;20272;-84
2022/03/16 01:38:16;;;;;;;51.78;26.10;;;;;;;3.92;86.85;102391.97;5023019;28;20019;-84
2022/03/16 01:40:41;;;;;;;52.30;26.05;;;;;;;3.94;86.71;102393.00;5023563;28;20196;-84
2022/03/16 01:43:06;;;;;;;56.10;27.27;;;;;;;3.93;86.98;102391.19;5027436;28;20018;-84
2022/03/16 01:45:32;;;;;;;52.50;26.67;;;;;;;3.92;87.13;102383.34;5026975;28;20299;-84
2022/03/16 01:47:57;;;;;;;50.47;25.42;;;;;;;3.93;87.16;102391.19;5026607;28;20207;-84
2022/03/16 01:50:26;;;;;;;52.92;26.35;;;;;;;3.91;87.20;102377.31;5023096;28;20260;-84
2022/03/16 01:52:51;;;;;;;50.53;26.70;;;;;;;3.88;87.15;102371.91;5020642;28;20328;-84
2022/03/16 01:55:17;;;;;;;55.22;27.45;;;;;;;3.88;88.24;102369.34;5020314;28;20026;-84
2022/03/16 01:57:47;;;;;;;54.10;28.10;;;;;;;3.88;88.40;102363.25;5023810;28;20021;-84
2022/03/16 02:00:13;;;;;;;50.92;26.50;;;;;;;3.88;88.58;102355.53;5023513;28;20024;-84
2022/03/16 02:02:38;;;;;;;52.05;27.40;;;;;;;3.89;88.51;102360.81;5024731;28;20025;-84
2022/03/16 02:05:04;;;;;;;51.90;25.85;;;;;;;3.88;88.93;102369.34;5024695;28;20030;-84
2022/03/16 02:07:29;;;;;;;50.17;26.10;;;;;;;3.89;89.01;102362.50;5026429;28;20025;-84
2022/03/16 02:09:59;;;;;;;51.60;26.58;;;;;;;3.89;88.84;102358.22;5021947;28;20372;-84
2022/03/16 02:12:24;;;;;;;52.45;27.10;;;;;;;3.89;88.87;102350.47;5021747;28;20029;-84
2022/03/16 02:14:49;;;;;;;54.75;26.90;;;;;;;3.88;88.62;102355.53;5023837;28;20049;-84
2022/03/16 02:17:15;;;;;;;52.53;26.77;;;;;;;3.87;88.59;102352.06;5032236;28;20021;-84
2022/03/16 02:19:40;;;;;;;50.42;26.00;;;;;;;3.86;88.87;102342.53;5023216;28;20022;-84
2022/03/16 02:22:09;;;;;;;49.38;26.13;;;;;;;3.83;88.76;102335.44;5029952;28;20248;-84
2022/03/16 02:24:34;;;;;;;51.10;27.17;;;;;;;3.86;89.04;102336.47;5024504;28;20030;-84
2022/03/16 02:26:59;;;;;;;51.72;27.30;;;;;;;3.85;89.09;102340.72;5022388;28;20053;-84
2022/03/16 02:29:25;;;;;;;47.63;26.23;;;;;;;3.85;88.77;102347.56;5023384;28;20045;-84
2022/03/16 02:31:50;;;;;;;48.55;25.88;;;;;;;3.85;89.07;102348.47;5021414;28;20272;-84
2022/03/16 02:34:16;;;;;;;49.35;26.10;;;;;;;3.82;88.61;102348.22;5022878;28;20441;-84
2022/03/16 02:36:41;;;;;;;46.00;25.50;;;;;;;3.78;88.66;102344.53;5025957;28;20033;-84
2022/03/16 02:39:07;;;;;;;52.83;26.98;;;;;;;3.79;88.57;102348.00;5026594;28;20025;-84
2022/03/16 02:41:32;;;;;;;47.63;24.80;;;;;;;3.77;87.75;102354.75;5025006;28;20217;-84
2022/03/16 02:43:58;;;;;;;46.72;25.42;;;;;;;3.75;87.74;102352.03;5024645;28;20043;-84
2022/03/16 02:46:23;;;;;;;49.83;25.67;;;;;;;3.73;87.78;102352.72;5024886;28;20015;-84
2022/03/16 02:48:49;;;;;;;48.22;25.23;;;;;;;3.71;87.04;102355.16;5021856;28;20021;-84
2022/03/16 02:51:14;;;;;;;44.53;24.65;;;;;;;3.69;86.52;102348.97;5020876;28;20299;-84
2022/03/16 02:53:40;;;;;;;45.53;24.70;;;;;;;3.65;86.73;102345.28;5016355;28;20014;-84
2022/03/16 02:56:06;;;;;;;47.75;24.30;;;;;;;3.62;86.70;102350.22;5020130;28;20085;-84
2022/03/16 02:58:31;;;;;;;44.28;24.25;;;;;;;3.60;86.57;102337.97;5026041;28;20037;-84
2022/03/16 03:00:56;;;;;;;47.50;24.52;;;;;;;3.61;87.06;102337.22;5023586;28;20107;-84
2022/03/16 03:03:22;;;;;;;46.05;25.95;;;;;;;3.59;87.28;102333.59;5025451;28;20030;-84
2022/03/16 03:05:48;;;;;;;47.15;25.27;;;;;;;3.56;88.11;102331.69;5027416;28;20010;-84
2022/03/16 03:08:14;;;;;;;46.70;25.35;;;;;;;3.56;87.83;102326.53;5026249;28;20041;-84
2022/03/16 03:10:39;;;;;;;47.92;25.55;;;;;;;3.54;88.21;102327.22;5027220;28;20026;-84
2022/03/16 03:13:05;;;;;;;45.05;24.27;;;;;;;3.51;87.46;102327.88;5027113;28;20201;-84
2022/03/16 03:15:30;;;;;;;49.42;25.10;;;;;;;3.49;87.86;102326.88;5032595;28;20279;-84
2022/03/16 03:17:55;;;;;;;49.67;25.20;;;;;;;3.47;88.22;102324.16;5030667;28;20181;-84
2022/03/16 03:20:21;;;;;;;49.13;26.67;;;;;;;3.47;88.85;102325.84;5027516;28;20378;-84
2022/03/16 03:22:46;;;;;;;48.00;25.73;;;;;;;3.49;89.00;102329.44;5033722;28;20097;-84
2022/03/16 03:25:14;;;;;;;45.35;24.88;;;;;;;3.47;88.94;102329.31;5027198;28;20271;-84
2022/03/16 03:27:39;;;;;;;49.92;25.70;;;;;;;3.47;89.23;102334.47;5034039;28;20022;-83
2022/03/16 03:30:06;;;;;;;49.53;26.23;;;;;;;3.49;89.12;102342.34;5023716;28;20024;-84
2022/03/16 03:32:31;;;;;;;48.47;26.52;;;;;;;3.46;88.93;102343.00;5026258;28;20021;-84
2022/03/16 03:34:57;;;;;;;49.15;26.08;;;;;;;3.44;88.97;102343.66;5025720;28;20025;-83
2022/03/16 03:37:25;;;;;;;47.10;25.48;;;;;;;3.42;89.02;102345.22;5028717;28;20025;-84
2022/03/16 03:39:50;;;;;;;48.05;25.77;;;;;;;3.41;89.15;102340.84;5025686;28;20016;-83
2022/03/16 03:42:16;;;;;;;45.22;24.15;;;;;;;3.39;88.63;102339.81;5030286;28;20264;-83
2022/03/16 03:44:41;;;;;;;48.78;25.33;;;;;;;3.38;89.07;102343.19;5027991;28;20087;-83
2022/03/16 03:47:08;;;;;;;47.58;24.98;;;;;;;3.37;88.97;102343.97;5029244;28;20256;-83
2022/03/16 03:49:36;;;;;;;45.65;24.95;;;;;;;3.37;89.05;102342.25;5027746;28;20316;-83
2022/03/16 03:52:03;;;;;;;46.65;24.65;;;;;;;3.36;89.01;102344.72;5027886;28;20040;-83
2022/03/16 03:54:29;;;;;;;46.35;24.80;;;;;;;3.37;88.93;102342.25;5025557;28;20172;-83
2022/03/16 03:56:54;;;;;;;49.20;25.52;;;;;;;3.36;88.96;102340.50;5029232;28;20018;-83
2022/03/16 03:59:20;;;;;;;45.72;24.27;;;;;;;3.36;89.13;102340.50;5025033;28;20033;-83
2022/03/16 04:01:46;;;;;;;50.72;25.25;;;;;;;3.33;89.59;102342.81;5029444;28;20049;-83
2022/03/16 04:04:12;;;;;;;46.63;25.80;;;;;;;3.36;90.04;102347.31;5024956;28;20029;-83
2022/03/16 04:06:37;;;;;;;51.03;26.40;;;;;;;3.36;89.91;102344.72;5024711;28;20014;-83
2022/03/16 04:09:03;;;;;;;49.75;26.65;;;;;;;3.35;90.07;102337.81;5027177;28;20084;-83
2022/03/16 04:11:28;;;;;;;52.38;27.35;;;;;;;3.36;90.16;102337.91;5024976;28;20014;-83
2022/03/16 04:13:53;;;;;;;53.30;27.13;;;;;;;3.36;89.91;102335.34;5028605;28;20337;-83
2022/03/16 04:16:19;;;;;;;48.15;26.63;;;;;;;3.38;90.01;102331.19;5031914;28;20034;-83
2022/03/16 04:18:44;;;;;;;50.90;27.02;;;;;;;3.38;89.76;102328.63;5031030;28;20046;-83
2022/03/16 04:21:09;;;;;;;51.80;28.42;;;;;;;3.39;90.09;102325.28;5018754;28;20026;-83
2022/03/16 04:23:36;;;;;;;53.55;28.25;;;;;;;3.39;90.04;102329.50;5025958;28;20049;-83
2022/03/16 04:26:01;;;;;;;54.60;27.85;;;;;;;3.39;90.10;102329.50;5025839;28;20029;-83
2022/03/16 04:28:26;;;;;;;53.42;27.25;;;;;;;3.40;90.12;102334.75;5029206;28;20013;-83
2022/03/16 04:30:52;;;;;;;53.13;27.15;;;;;;;3.41;90.41;102320.22;5025706;28;20033;-83
2022/03/16 04:33:17;;;;;;;51.72;28.98;;;;;;;3.42;89.95;102322.03;5027513;28;20020;-83
2022/03/16 04:35:42;;;;;;;49.75;27.90;;;;;;;3.42;90.26;102324.63;5023106;28;20037;-83
2022/03/16 04:38:11;;;;;;;56.40;28.35;;;;;;;3.43;90.28;102328.97;5031228;28;20014;-83
2022/03/16 04:40:36;;;;;;;54.72;28.88;;;;;;;3.42;90.49;102320.34;5023248;28;20013;-83
2022/03/16 04:43:01;;;;;;;53.38;27.83;;;;;;;3.43;90.16;102321.22;5029792;28;20026;-83
2022/03/16 04:45:27;;;;;;;53.75;29.83;;;;;;;3.41;90.58;102323.69;5029130;28;20013;-83
2022/03/16 04:47:52;;;;;;;58.15;29.40;;;;;;;3.39;90.27;102319.19;5024636;28;20268;-83
2022/03/16 04:50:18;;;;;;;55.83;28.80;;;;;;;3.39;90.66;102321.78;5027163;28;20084;-83
2022/03/16 04:52:45;;;;;;;57.58;30.15;;;;;;;3.39;90.82;102319.19;5024289;28;20052;-83
2022/03/16 04:55:10;;;;;;;57.20;30.30;;;;;;;3.40;90.51;102316.72;5023152;28;20276;-83
2022/03/16 04:57:36;;;;;;;57.60;30.60;;;;;;;3.41;90.61;102325.38;5020999;28;20041;-83
2022/03/16 05:00:02;;;;;;;56.97;28.95;;;;;;;3.42;90.55;102316.88;5029211;28;20185;-83
2022/03/16 05:02:27;;;;;;;56.13;29.75;;;;;;;3.40;90.27;102321.88;5030331;28;20009;-83
2022/03/16 05:04:52;;;;;;;51.72;28.05;;;;;;;3.39;90.29;102317.53;5030604;28;20022;-83
2022/03/16 05:07:18;;;;;;;49.42;27.17;;;;;;;3.39;90.32;102314.97;5029887;28;20026;-83
2022/03/16 05:09:43;;;;;;;53.22;28.95;;;;;;;3.38;90.47;102333.75;5028664;28;20084;-83
2022/03/16 05:12:09;;;;;;;54.83;29.33;;;;;;;3.39;90.48;102339.81;5023979;28;20017;-83
2022/03/16 05:14:34;;;;;;;49.33;28.05;;;;;;;3.37;90.04;102329.38;5021478;28;20173;-83
2022/03/16 05:16:59;;;;;;;52.78;28.58;;;;;;;3.38;90.20;102332.88;5023633;28;20049;-83
2022/03/16 05:19:26;;;;;;;56.92;28.50;;;;;;;3.38;90.20;102332.88;5029648;28;20041;-83
2022/03/16 05:21:51;;;;;;;50.63;27.10;;;;;;;3.39;90.24;102333.00;5026585;28;20049;-83
2022/03/16 05:24:19;;;;;;;49.80;26.88;;;;;;;3.40;90.81;102327.03;5031451;28;20030;-83
2022/03/16 05:26:45;;;;;;;55.70;29.15;;;;;;;3.42;91.20;102329.75;5022118;28;20085;-83
2022/03/16 05:29:11;;;;;;;50.33;27.45;;;;;;;3.42;91.16;102324.63;5026883;28;20021;-83
2022/03/16 05:31:36;;;;;;;48.38;27.38;;;;;;;3.42;91.11;102315.19;5029266;28;20014;-82
2022/03/16 05:34:02;;;;;;;48.83;26.70;;;;;;;3.43;91.39;102305.78;5029386;28;21293;-82
2022/03/16 05:36:27;;;;;;;51.42;27.42;;;;;;;3.43;90.82;102314.41;5024211;28;20018;-82
2022/03/16 05:38:52;;;;;;;51.40;28.08;;;;;;;3.44;91.33;102312.72;5027012;28;20085;-82
2022/03/16 05:41:18;;;;;;;57.85;28.23;;;;;;;3.45;91.38;102306.81;5026329;28;20014;-82
2022/03/16 05:43:43;;;;;;;54.60;28.02;;;;;;;3.47;91.42;102312.97;5024665;28;20013;-82
2022/03/16 05:46:08;;;;;;;52.65;27.50;;;;;;;3.46;91.20;102306.00;5025679;28;20023;-82
2022/03/16 05:48:34;;;;;;;50.90;26.75;;;;;;;3.48;91.43;102314.75;5023218;28;20153;-82
2022/03/16 05:50:59;;;;;;;48.55;26.55;;;;;;;3.46;91.25;102309.50;5029908;28;20223;-82
2022/03/16 05:53:24;;;;;;;50.88;26.75;;;;;;;3.46;91.41;102314.66;5021483;28;20087;-82
2022/03/16 05:55:50;;;;;;;49.10;25.50;;;;;;;3.47;91.22;102312.97;5020155;28;20014;-82
2022/03/16 05:58:15;;;;;;;50.45;26.08;;;;;;;3.48;90.70;102314.75;5024419;28;20091;-82
2022/03/16 06:00:42;;;;;;;50.05;25.63;;;;;;;3.48;91.68;102325.06;5020005;28;20264;-82
2022/03/16 06:03:08;;;;;;;50.90;25.58;;;;;;;3.49;91.09;102334.59;5025076;28;20264;-82
2022/03/16 06:05:33;;;;;;;51.70;25.77;;;;;;;3.50;91.36;102331.22;5025128;28;20013;-82
2022/03/16 06:07:59;;;;;;;51.33;25.38;;;;;;;3.53;90.75;102331.44;5024919;28;20085;-82
2022/03/16 06:10:25;;;;;;;50.78;25.88;;;;;;;3.57;91.25;102335.19;5023970;28;20025;-82
2022/03/16 06:13:00;;;;;;;50.13;24.90;;;;;;;3.59;91.03;102333.59;5021980;28;20211;-83
2022/03/16 06:15:28;;;;;;;48.03;24.20;;;;;;;3.61;91.11;102339.78;5021201;28;20101;-82
2022/03/16 06:17:59;;;;;;;46.67;23.98;;;;;;;3.63;90.85;102345.94;5022780;28;20172;-82
2022/03/16 06:20:31;;;;;;;43.08;22.42;;;;;;;3.65;90.55;102353.03;5022196;28;20179;-82
2022/03/16 06:22:57;;;;;;;45.25;24.30;;;;;;;3.67;90.50;102345.41;5029504;28;20025;-83
2022/03/16 06:25:24;;;;;;;43.47;22.40;;;;;;;3.69;90.66;102345.50;5023567;28;20021;-83
2022/03/16 06:27:50;;;;;;;44.90;23.08;;;;;;;3.71;90.67;102350.00;5022083;28;20013;-83
2022/03/16 06:30:15;;;;;;;44.50;22.83;;;;;;;3.71;90.84;102346.50;5034772;28;20013;-82
2022/03/16 06:32:45;;;;;;;47.05;22.15;;;;;;;3.74;90.63;102344.19;5029188;28;20026;-82
2022/03/16 06:35:10;;;;;;;;;;;;;;;3.80;89.58;102344.66;5021189;28;20049;-82
2022/03/16 06:37:35;;;;;;;41.15;20.05;;;;;;;3.80;90.33;102340.38;5027586;28;20103;-82
2022/03/16 06:40:01;;;;;;;43.42;20.60;;;;;;;3.81;90.72;102337.03;5028650;28;20040;-82
2022/03/16 06:42:26;;;;;;;46.25;21.88;;;;;;;3.85;90.59;102340.72;5024964;28;20017;-82
2022/03/16 06:44:51;;;;;;;44.28;22.00;;;;;;;3.87;90.71;102341.75;5021161;28;20037;-82
2022/03/16 06:47:17;;;;;;;41.88;20.40;;;;;;;3.90;91.55;102339.41;5020266;28;20013;-82
2022/03/16 06:49:42;;;;;;;40.05;20.40;;;;;;;3.93;90.91;102333.59;5021197;28;20133;-82
2022/03/16 06:52:07;;;;;;;39.90;21.00;;;;;;;3.95;91.00;102335.50;5023713;28;20049;-82
2022/03/16 06:54:33;;;;;;;43.38;20.55;;;;;;;4.00;91.10;102333.25;5019010;28;20025;-82
2022/03/16 06:56:58;;;;;;;41.58;20.80;;;;;;;4.06;90.77;102328.53;5024783;28;20026;-83
2022/03/16 06:59:23;;;;;;;41.35;20.65;;;;;;;4.13;91.02;102317.00;5024052;28;20045;-83
2022/03/16 07:01:48;;;;;;;40.95;20.40;;;;;;;4.19;90.78;102309.72;5020739;28;20022;-83
2022/03/16 07:04:14;;;;;;;40.38;19.58;;;;;;;4.27;90.75;102307.69;5026274;28;20041;-83
2022/03/16 07:06:39;;;;;;;42.22;21.05;;;;;;;4.33;90.80;102303.88;5029659;28;20279;-83
2022/03/16 07:09:05;;;;;;;38.88;19.67;;;;;;;4.38;90.70;102311.06;5021631;28;20075;-83
2022/03/16 07:11:30;;;;;;;42.47;19.92;;;;;;;4.45;90.94;102308.13;5018720;28;20029;-83
2022/03/16 07:16:41;;;;;;;39.17;19.80;;;;;;;4.72;90.58;102308.28;5022438;28;20151;-83
2022/03/16 07:19:07;;;;;;;40.70;19.55;;;;;;;4.90;89.95;102304.44;5023171;28;20034;-83
2022/03/16 07:21:33;;;;;;;38.90;19.75;;;;;;;5.05;89.37;102302.00;5027811;28;20236;-83
2022/03/16 07:23:58;;;;;;;39.13;19.75;;;;;;;5.16;89.44;102295.03;5022721;28;20044;-83
2022/03/16 07:26:23;;;;;;;37.28;18.80;;;;;;;5.27;88.59;102295.75;5022091;28;20287;-83
2022/03/16 07:28:50;;;;;;;40.15;19.80;;;;;;;5.37;88.83;102293.00;5016418;28;20119;-83
2022/03/16 07:31:15;;;;;;;36.60;18.38;;;;;;;5.46;88.31;102295.31;5025340;28;20024;-83
2022/03/16 07:33:40;;;;;;;34.60;18.52;;;;;;;5.56;88.09;102289.97;5015590;28;20018;-83
2022/03/16 07:36:06;;;;;;;33.55;18.30;;;;;;;5.67;88.00;102293.28;5011607;28;20022;-83
2022/03/16 07:38:31;;;;;;;37.88;18.60;;;;;;;5.75;88.09;102290.41;5022519;28;20010;-83
2022/03/16 07:40:56;;;;;;;36.20;18.50;;;;;;;5.83;87.50;102288.34;5016624;28;20371;-84
2022/03/16 07:43:22;;;;;;;37.00;18.02;;;;;;;5.90;87.52;102282.78;5011863;28;20011;-84
2022/03/16 07:45:48;;;;;;;33.72;17.50;;;;;;;5.98;87.21;102285.91;5019716;28;20013;-84
2022/03/16 07:48:13;;;;;;;36.50;18.08;;;;;;;6.08;87.13;102287.38;5023491;28;20192;-84
2022/03/16 07:50:39;;;;;;;35.25;18.67;;;;;;;6.17;86.84;102284.50;5015768;28;20196;-84
2022/03/16 07:53:06;;;;;;;36.50;18.58;;;;;;;6.27;86.05;102289.47;5026760;28;20014;-84
2022/03/16 07:55:32;;;;;;;33.42;17.75;;;;;;;6.37;85.92;102283.19;5025894;28;20014;-84
2022/03/16 07:57:57;;;;;;;34.88;17.52;;;;;;;6.46;85.56;102282.88;5024979;28;20025;-84
2022/03/16 08:00:24;;;;;;;33.97;17.45;;;;;;;6.51;85.52;102278.91;5025943;28;20010;-84
2022/03/16 08:02:53;;;;;;;35.00;17.38;;;;;;;6.57;85.03;102287.06;5023271;28;20017;-84
2022/03/16 08:05:21;;;;;;;34.42;18.33;;;;;;;6.60;83.06;102289.84;5018530;28;20018;-85
2022/03/16 08:07:47;;;;;;;32.42;17.00;;;;;;;6.63;83.96;102297.78;5016059;28;20018;-85
2022/03/16 08:10:12;;;;;;;32.45;17.63;;;;;;;6.66;84.07;102294.50;5020872;28;20021;-85
2022/03/16 08:12:38;;;;;;;35.33;17.00;;;;;;;6.71;83.97;102287.94;5029346;28;20295;-85
2022/03/16 08:15:05;;;;;;;36.20;17.48;;;;;;;6.75;83.90;102293.41;5016688;28;20010;-85
2022/03/16 08:17:30;;;;;;;34.72;17.65;;;;;;;6.81;82.95;102294.56;5021466;28;20280;-86
2022/03/16 08:19:57;;;;;;;33.97;16.95;;;;;;;6.84;82.61;102292.19;5026368;28;20041;-85
2022/03/16 08:22:31;;;;;;;35.05;17.63;;;;;;;6.85;82.15;102291.38;5037013;28;20021;-85
2022/03/16 08:24:59;;;;;;;35.00;18.10;;;;;;;6.86;81.74;102296.66;5023536;28;20029;-86
2022/03/16 08:27:25;;;;;;;36.42;17.95;;;;;;;6.87;83.19;102284.59;5016973;28;20172;-85
2022/03/16 08:30:02;;;;;;;36.78;19.33;;;;;;;6.92;83.33;102280.59;5035708;28;20067;-85
2022/03/16 08:33:15;;;;;;;34.22;18.13;;;;;;;7.01;82.39;102294.13;5025169;28;20097;-85
2022/03/16 08:36:07;;;;;;;34.70;17.88;;;;;;;7.09;81.37;102282.50;5000087;28;20014;-86
2022/03/16 08:38:37;;;;;;;37.38;18.02;;;;;;;7.18;81.87;102287.34;5021851;28;20013;-86
2022/03/16 08:41:28;;;;;;;35.80;18.52;;;;;;;7.30;82.25;102271.69;5023095;28;20048;-86
2022/03/16 08:43:54;;;;;;;34.42;17.63;;;;;;;7.40;81.20;102280.88;5007929;28;20355;-86
2022/03/16 08:46:19;;;;;;;36.28;18.58;;;;;;;7.47;79.65;102285.63;5030774;28;20014;-86
2022/03/16 08:48:44;;;;;;;34.25;17.73;;;;;;;7.56;80.40;102280.09;5034141;28;20050;-87
2022/03/16 08:51:10;;;;;;;36.92;18.77;;;;;;;7.63;80.42;102277.03;5027414;28;20245;-85
2022/03/16 08:53:37;;;;;;;35.83;17.85;;;;;;;7.72;80.28;102287.97;5026780;28;20247;-86
2022/03/16 08:56:03;;;;;;;34.85;17.38;;;;;;;7.81;79.96;102282.44;5023642;28;20009;-85
2022/03/16 08:58:29;;;;;;;32.03;17.13;;;;;;;7.91;78.62;102281.28;5023784;28;20017;-86
2022/03/16 09:00:54;;;;;;;32.92;16.75;;;;;;;7.98;78.01;102284.31;5023063;28;20014;-86
2022/03/16 09:03:20;;;;;;;33.88;16.77;;;;;;;8.06;78.68;102292.50;5023247;28;20017;-86
2022/03/16 09:05:45;;;;;;;36.92;17.52;;;;;;;8.13;77.87;102294.66;5035056;28;20039;-86
2022/03/16 09:08:10;;;;;;;35.65;17.58;;;;;;;8.20;77.45;102293.31;5033153;28;20092;-85
2022/03/16 09:10:36;;;;;;;35.08;16.98;;;;;;;8.27;76.76;102298.03;5028107;28;20097;-86
2022/03/16 09:13:02;;;;;;;33.83;17.52;;;;;;;8.35;78.25;102293.28;5034779;28;20059;-86
2022/03/16 09:15:27;;;;;;;34.83;16.85;;;;;;;8.43;77.31;102291.09;5024607;28;20022;-86
2022/03/16 09:17:55;;;;;;;33.88;16.65;;;;;;;8.52;77.62;102292.53;5031933;28;20024;-85
2022/03/16 09:20:21;;;;;;;32.80;16.58;;;;;;;8.61;75.46;102296.47;5025587;28;20037;-85
2022/03/16 09:22:46;;;;;;;32.65;16.40;;;;;;;8.64;74.87;102287.13;5033472;28;20109;-85
2022/03/16 09:25:12;;;;;;;34.75;17.17;;;;;;;8.69;76.65;102284.78;5024685;28;20029;-86
2022/03/16 09:27:38;;;;;;;33.22;16.50;;;;;;;8.79;76.52;102288.75;5035548;28;20025;-85
2022/03/16 09:30:04;;;;;;;35.75;17.25;;;;;;;8.90;75.60;102290.25;5026668;28;20147;-85
2022/03/16 09:32:30;;;;;;;34.83;16.63;;;;;;;8.97;74.94;102288.88;5030211;28;20107;-85
2022/03/16 09:34:55;;;;;;;35.20;16.85;;;;;;;9.00;73.89;102286.44;5023371;28;20308;-85
2022/03/16 09:37:21;;;;;;;37.80;17.42;;;;;;;9.02;74.88;102285.72;5027566;28;20022;-87
2022/03/16 09:39:46;;;;;;;41.35;18.95;;;;;;;9.06;74.86;102278.97;5028454;28;20029;-87
2022/03/16 09:42:12;;;;;;;38.25;18.10;;;;;;;9.13;74.84;102278.47;5029517;28;20022;-87
2022/03/16 09:44:38;;;;;;;34.97;16.52;;;;;;;9.22;74.95;102270.25;5022149;28;20021;-87
2022/03/16 09:47:04;;;;;;;33.78;17.38;;;;;;;9.32;74.65;102274.22;5028270;28;20017;-86
2022/03/16 09:49:30;;;;;;;37.67;18.90;;;;;;;9.35;74.01;102272.66;5023368;28;20025;-87
2022/03/16 09:51:57;;;;;;;36.03;18.17;;;;;;;9.37;74.06;102271.06;5023625;28;20025;-87
2022/03/16 09:54:23;;;;;;;34.67;16.95;;;;;;;9.40;73.33;102279.00;5024286;28;20053;-86
2022/03/16 09:56:49;;;;;;;41.15;17.40;;;;;;;9.46;73.05;102268.03;5021896;28;20016;-87
2022/03/16 09:59:15;;;;;;;36.35;17.80;;;;;;;9.52;73.74;102263.13;5027068;28;20009;-87
2022/03/16 10:01:42;;;;;;;35.92;17.92;;;;;;;9.56;73.05;102265.06;5025755;28;20355;-87
2022/03/16 10:04:07;;;;;;;35.53;17.90;;;;;;;9.60;72.61;102273.91;5022066;28;20236;-87
2022/03/16 10:06:40;;;;;;;32.70;16.95;;;;;;;9.64;72.48;102264.56;5022132;28;20167;-87
2022/03/16 10:14:49;;;;;;;37.22;17.05;;;;;;;9.81;72.81;102255.91;5207416;23;20053;-96
2022/03/16 10:20:42;;;;;;;32.55;15.73;;;;;;;9.94;72.16;102246.97;5007421;28;20130;-96
2022/03/16 10:23:20;;;;;;;31.27;16.05;;;;;;;10.06;72.00;102254.50;4977693;23;20077;-86
2022/03/16 10:25:53;;;;;;;34.17;16.92;;;;;;;10.15;72.51;102254.91;4984894;28;20034;-86
2022/03/16 10:28:30;;;;;;;28.73;14.98;;;;;;;10.24;72.47;102260.59;4988508;28;20036;-86
2022/03/16 10:31:07;;;;;;;30.85;16.33;;;;;;;10.32;70.94;102255.72;4988192;28;20022;-86
2022/03/16 10:33:45;;;;;;;33.78;15.95;;;;;;;10.38;72.38;102249.97;5001369;28;20497;-86
2022/03/16 10:36:20;;;;;;;32.47;17.55;;;;;;;10.47;72.06;102249.50;4985064;28;20034;-86
2022/03/16 10:39:03;;;;;;;33.78;17.05;;;;;;;10.59;71.91;102245.75;4989288;28;20084;-86
2022/03/16 10:47:14;;;;;;;33.45;16.60;;;;;;;10.94;71.56;102236.00;4990225;28;20057;-86
2022/03/16 10:49:43;;;;;;;30.77;15.48;;;;;;;11.04;71.69;102231.22;4989967;28;20541;-86
2022/03/16 10:52:14;;;;;;;28.10;15.55;;;;;;;11.12;71.26;102227.22;4988525;28;20084;-86
2022/03/16 10:54:41;;;;;;;29.92;16.40;;;;;;;11.19;69.08;102225.78;4989986;28;20615;-85
2022/03/16 10:57:10;;;;;;;29.00;15.65;;;;;;;11.24;69.22;102222.53;4988922;28;20034;-86
2022/03/16 10:59:37;;;;;;;34.28;16.70;;;;;;;11.35;70.88;102230.81;4990243;28;20176;-85
2022/03/16 11:02:04;;;;;;;30.90;16.40;;;;;;;11.40;69.50;102224.09;4989891;28;20057;-86
2022/03/16 11:04:31;;;;;;;31.15;17.08;;;;;;;11.40;69.35;102225.81;4989704;28;20042;-86
2022/03/16 11:06:58;;;;;;;32.20;15.60;;;;;;;11.38;69.63;102228.34;4988424;28;20042;-85
2022/03/16 11:09:24;;;;;;;29.65;15.15;;;;;;;11.43;69.75;102224.22;4989764;28;20018;-85
2022/03/16 11:14:36;;;;;;;28.08;14.73;;;;;;;11.36;68.14;102224.78;4990053;28;20026;-86
2022/03/16 11:17:02;;;;;;;29.45;14.65;;;;;;;11.30;68.24;102224.53;4989848;28;20019;-82
2022/03/16 11:19:30;;;;;;;27.60;14.45;;;;;;;11.26;69.78;102226.09;4979241;28;20038;-82
2022/03/16 11:22:20;;;;;;;29.77;14.82;;;;;;;11.25;69.69;102228.63;4970829;28;20095;-82
2022/03/16 11:24:58;;;;;;;29.30;15.13;;;;;;;11.27;70.31;102238.31;4970965;28;20034;-82
2022/03/16 11:27:46;;;;;;;27.00;13.90;;;;;;;11.29;68.39;102231.44;4994144;28;20033;-81
2022/03/16 11:30:28;;;;;;;27.15;14.82;;;;;;;11.37;70.08;102230.88;4992655;28;20461;-83
2022/03/16 11:33:04;;;;;;;26.83;14.80;;;;;;;11.50;70.07;102228.00;4993773;28;20073;-83
2022/03/16 11:35:34;;;;;;;27.88;14.63;;;;;;;11.65;71.36;102226.00;4992565;28;20042;-83